createdAt,value
2023-03-16T00:01:53.569Z,10.47
2023-03-16T00:04:40.733Z,4.83
2023-03-16T00:07:27.624Z,9.27
2023-03-16T00:10:14.924Z,5.70
2023-03-16T00:13:02.837Z,5.47
2023-03-16T00:15:52.374Z,4.00
2023-03-16T00:18:41.269Z,5.20
2023-03-16T00:21:27.939Z,5.63
2023-03-16T00:24:18.192Z,7.30
2023-03-16T00:27:05.105Z,5.63
2023-03-16T00:29:56.036Z,10.80
2023-03-16T00:32:43.157Z,8.37
2023-03-16T00:35:34.795Z,5.93
2023-03-16T00:38:21.838Z,6.30
2023-03-16T00:41:09.337Z,4.83
2023-03-16T00:43:56.126Z,8.03
2023-03-16T00:46:42.904Z,9.80
2023-03-16T00:49:29.700Z,7.10
2023-03-16T00:52:17.833Z,5.10
2023-03-16T00:55:05.192Z,8.13
2023-03-16T00:57:52.040Z,8.63
2023-03-16T01:00:40.363Z,7.20
2023-03-16T01:03:27.057Z,5.97
2023-03-16T01:06:17.217Z,7.03
2023-03-16T01:09:06.834Z,6.70
2023-03-16T01:11:54.627Z,5.73
2023-03-16T01:14:42.467Z,6.27
2023-03-16T01:17:29.403Z,4.60
2023-03-16T01:20:19.467Z,8.40
2023-03-16T01:23:05.992Z,4.70
2023-03-16T01:25:54.989Z,5.93
2023-03-16T01:28:42.008Z,9.40
2023-03-16T01:31:29.416Z,4.57
2023-03-16T01:34:18.691Z,4.63
2023-03-16T01:37:05.791Z,7.47
2023-03-16T01:40:12.731Z,3.27
2023-03-16T01:43:06.214Z,4.97
2023-03-16T01:46:19.265Z,4.73
2023-03-16T01:49:10.900Z,3.90
2023-03-16T01:52:03.634Z,9.13
2023-03-16T01:54:56.252Z,5.30
2023-03-16T01:57:46.334Z,3.47
2023-03-16T02:00:34.966Z,7.90
2023-03-16T02:03:40.213Z,5.17
2023-03-16T02:06:36.820Z,4.60
2023-03-16T02:09:26.361Z,7.33
2023-03-16T02:12:18.554Z,5.43
2023-03-16T02:15:11.467Z,6.10
2023-03-16T02:18:00.832Z,5.30
2023-03-16T02:20:53.553Z,7.10
2023-03-16T02:23:44.310Z,7.33
2023-03-16T02:26:44.944Z,6.00
2023-03-16T02:29:54.279Z,6.23
2023-03-16T02:32:42.526Z,6.27
2023-03-16T02:35:28.999Z,4.57
2023-03-16T02:38:15.911Z,9.53
2023-03-16T02:41:14.253Z,5.03
2023-03-16T02:44:06.607Z,9.07
2023-03-16T02:47:01.410Z,9.40
2023-03-16T02:49:49.287Z,5.60
2023-03-16T02:52:36.332Z,13.77
2023-03-16T02:55:22.855Z,5.60
2023-03-16T02:58:09.986Z,8.20
2023-03-16T03:00:56.987Z,6.07
2023-03-16T03:03:45.096Z,3.23
2023-03-16T03:06:32.404Z,12.70
2023-03-16T03:09:19.702Z,8.00
2023-03-16T03:12:10.183Z,7.03
2023-03-16T03:14:57.385Z,7.30
2023-03-16T03:17:45.264Z,5.37
2023-03-16T03:20:33.817Z,9.50
2023-03-16T03:23:20.358Z,4.33
2023-03-16T03:26:07.702Z,13.60
2023-03-16T03:28:54.592Z,5.07
2023-03-16T03:31:41.492Z,9.20
2023-03-16T03:34:28.360Z,4.40
2023-03-16T03:37:16.502Z,7.50
2023-03-16T03:40:11.121Z,9.60
2023-03-16T03:42:59.232Z,3.63
2023-03-16T03:45:47.332Z,6.00
2023-03-16T03:48:34.889Z,6.23
2023-03-16T03:51:21.830Z,7.77
2023-03-16T03:54:36.362Z,7.37
2023-03-16T03:57:28.350Z,5.60
2023-03-16T04:00:16.128Z,6.00
2023-03-16T04:03:04.170Z,8.00
2023-03-16T04:05:57.640Z,10.13
2023-03-16T04:08:44.317Z,2.57
2023-03-16T04:11:39.039Z,2.97
2023-03-16T04:14:25.887Z,11.83
2023-03-16T04:17:13.623Z,13.20
2023-03-16T04:20:06.070Z,4.47
2023-03-16T04:22:58.580Z,5.27
2023-03-16T04:25:45.733Z,7.83
2023-03-16T04:28:36.432Z,5.53
2023-03-16T04:31:23.230Z,4.73
2023-03-16T04:34:10.199Z,4.90
2023-03-16T04:36:56.748Z,8.97
2023-03-16T04:39:43.418Z,7.67
2023-03-16T04:42:30.634Z,4.47
2023-03-16T04:45:19.100Z,2.40
2023-03-16T04:48:07.863Z,7.43
2023-03-16T04:50:54.840Z,9.97
2023-03-16T04:53:42.221Z,4.73
2023-03-16T04:56:35.611Z,9.57
2023-03-16T04:59:27.668Z,23.20
2023-03-16T05:02:25.584Z,6.43
2023-03-16T05:05:12.278Z,35.37
2023-03-16T05:08:03.357Z,59.80
2023-03-16T05:10:52.596Z,34.90
2023-03-16T05:13:39.389Z,23.43
2023-03-16T05:16:26.281Z,24.33
2023-03-16T05:19:14.416Z,24.13
2023-03-16T05:22:01.194Z,24.37
2023-03-16T05:24:47.801Z,18.07
2023-03-16T05:27:35.482Z,12.00
2023-03-16T05:30:24.695Z,10.43
2023-03-16T05:33:13.737Z,10.57
2023-03-16T05:36:03.168Z,4.97
2023-03-16T05:38:50.874Z,8.03
2023-03-16T05:41:46.060Z,9.70
2023-03-16T05:44:38.225Z,7.40
2023-03-16T05:47:38.938Z,5.67
2023-03-16T05:50:28.737Z,11.57
2023-03-16T05:53:17.086Z,5.67
2023-03-16T05:56:03.967Z,10.27
2023-03-16T05:58:54.122Z,8.60
2023-03-16T06:01:43.283Z,10.07
2023-03-16T06:04:30.095Z,5.17
2023-03-16T06:07:17.763Z,7.63
2023-03-16T06:10:08.249Z,4.80
2023-03-16T06:12:55.082Z,6.90
2023-03-16T06:15:42.203Z,6.90
2023-03-16T06:18:29.001Z,7.60
2023-03-16T06:21:16.335Z,6.63
2023-03-16T06:24:04.709Z,7.30
2023-03-16T06:26:53.298Z,3.50
2023-03-16T06:29:44.091Z,8.53
2023-03-16T06:32:30.899Z,7.80
2023-03-16T06:35:17.704Z,8.67
2023-03-16T06:38:13.225Z,3.43
2023-03-16T06:41:10.220Z,4.37
2023-03-16T06:43:58.494Z,6.70
2023-03-16T06:46:44.970Z,5.30
2023-03-16T06:49:31.802Z,3.47
2023-03-16T06:52:20.002Z,7.00
2023-03-16T06:55:07.824Z,5.20
2023-03-16T06:57:58.236Z,12.20
2023-03-16T07:00:46.532Z,5.83
2023-03-16T07:03:33.184Z,8.00
2023-03-16T07:06:26.655Z,9.60
2023-03-16T07:09:14.180Z,4.47
2023-03-16T07:12:01.449Z,5.33
2023-03-16T07:14:51.859Z,7.37
2023-03-16T07:17:43.798Z,6.60
2023-03-16T07:20:33.203Z,4.03
2023-03-16T07:23:24.500Z,2.90
2023-03-16T07:26:12.870Z,4.50
2023-03-16T07:29:10.081Z,9.90
2023-03-16T07:31:57.304Z,8.43
2023-03-16T07:34:52.373Z,6.03
2023-03-16T07:37:39.344Z,8.67
2023-03-16T07:40:27.665Z,5.40
2023-03-16T07:43:20.290Z,8.57
2023-03-16T07:46:10.735Z,5.57
2023-03-16T07:48:57.792Z,7.70
2023-03-16T07:51:46.324Z,11.03
2023-03-16T07:54:34.981Z,11.07
2023-03-16T07:57:23.974Z,7.43
2023-03-16T08:00:14.194Z,8.43
2023-03-16T08:03:03.123Z,2.47
2023-03-16T08:05:50.443Z,8.73
2023-03-16T08:08:40.280Z,6.23
2023-03-16T08:11:29.318Z,1.93
2023-03-16T08:14:19.122Z,5.50
2023-03-16T08:17:18.760Z,6.00
2023-03-16T08:20:10.711Z,6.33
2023-03-16T08:22:57.560Z,5.43
2023-03-16T08:25:49.181Z,3.97
2023-03-16T08:28:37.402Z,5.87
2023-03-16T08:31:28.941Z,9.60
2023-03-16T08:34:24.611Z,6.20
2023-03-16T08:37:11.743Z,3.73
2023-03-16T08:40:00.474Z,9.07
2023-03-16T08:42:50.926Z,5.03
2023-03-16T08:45:39.422Z,5.73
2023-03-16T08:48:26.654Z,10.53
2023-03-16T08:51:13.233Z,6.47
2023-03-16T08:54:00.765Z,5.73
2023-03-16T08:56:47.236Z,6.87
2023-03-16T08:59:35.330Z,5.73
2023-03-16T09:02:22.284Z,7.83
2023-03-16T09:05:11.197Z,7.03
2023-03-16T09:07:58.910Z,11.20
2023-03-16T09:10:46.899Z,10.10
2023-03-16T09:13:33.795Z,12.33
2023-03-16T09:16:25.727Z,5.10
2023-03-16T09:19:12.204Z,7.63
2023-03-16T09:21:59.282Z,4.30
2023-03-16T09:24:46.040Z,3.07
2023-03-16T09:27:33.177Z,3.87
2023-03-16T09:30:19.952Z,3.93
2023-03-16T09:33:07.947Z,3.97
2023-03-16T09:35:55.969Z,2.80
2023-03-16T09:38:43.919Z,5.07
2023-03-16T09:41:43.710Z,6.13
2023-03-16T09:44:40.463Z,6.80
2023-03-16T09:47:30.390Z,3.30
2023-03-16T09:50:28.197Z,4.60
2023-03-16T09:53:24.924Z,4.77
2023-03-16T09:56:15.626Z,8.40
2023-03-16T09:59:04.360Z,4.13
2023-03-16T10:02:05.073Z,6.50
2023-03-16T10:05:00.942Z,3.07
2023-03-16T10:08:02.090Z,2.00
2023-03-16T10:11:06.335Z,6.10
2023-03-16T10:13:57.835Z,4.57
2023-03-16T10:16:49.192Z,3.63
2023-03-16T10:19:42.178Z,5.67
2023-03-16T10:22:32.271Z,3.17
2023-03-16T10:25:24.400Z,3.80
2023-03-16T10:28:14.532Z,2.27
2023-03-16T10:31:04.310Z,4.43
2023-03-16T10:33:55.755Z,4.60
2023-03-16T10:36:45.257Z,3.50
2023-03-16T10:39:42.987Z,4.00
2023-03-16T10:42:30.811Z,5.03
2023-03-16T10:45:27.679Z,4.17
2023-03-16T10:48:16.114Z,3.90
2023-03-16T10:51:07.903Z,2.07
2023-03-16T10:53:54.945Z,6.53
2023-03-16T10:56:41.736Z,1.63
2023-03-16T10:59:34.416Z,4.10
2023-03-16T11:02:23.818Z,4.03
2023-03-16T11:05:16.049Z,1.20
2023-03-16T11:08:10.695Z,1.37
2023-03-16T11:10:59.224Z,1.47
2023-03-16T11:13:47.684Z,2.57
2023-03-16T11:16:40.290Z,2.23
2023-03-16T11:19:29.623Z,3.40
2023-03-16T11:22:19.047Z,1.90
2023-03-16T11:25:14.398Z,2.27
2023-03-16T11:28:13.620Z,1.97
2023-03-16T11:31:14.045Z,2.07
2023-03-16T11:34:02.926Z,3.27
2023-03-16T11:36:55.073Z,4.70
2023-03-16T11:39:54.319Z,1.63
2023-03-16T11:42:50.429Z,1.67
2023-03-16T11:45:45.737Z,1.83
2023-03-16T11:48:41.149Z,3.37
2023-03-16T11:51:48.868Z,4.23
2023-03-16T11:54:56.655Z,3.50
2023-03-16T11:57:54.848Z,2.47
2023-03-16T12:00:53.788Z,3.73
2023-03-16T12:03:58.533Z,6.83
2023-03-16T12:07:09.350Z,1.50
2023-03-16T12:10:10.902Z,2.23
2023-03-16T12:13:15.851Z,3.87
2023-03-16T12:16:06.822Z,4.30
2023-03-16T12:19:00.239Z,4.90
2023-03-16T12:21:50.543Z,3.43
2023-03-16T12:24:44.029Z,6.93
2023-03-16T12:27:34.481Z,2.90
2023-03-16T12:30:42.541Z,1.50
2023-03-16T12:33:40.946Z,5.00
2023-03-16T12:37:02.152Z,3.80
2023-03-16T12:40:21.153Z,1.57
2023-03-16T12:43:31.935Z,5.37
2023-03-16T12:46:29.060Z,4.00
2023-03-16T12:49:16.584Z,1.47
2023-03-16T12:52:05.426Z,4.63
2023-03-16T12:54:53.939Z,4.23
2023-03-16T12:57:43.984Z,2.50
2023-03-16T13:00:35.947Z,4.37
2023-03-16T13:03:24.526Z,3.83
2023-03-16T13:06:20.355Z,3.13
2023-03-16T13:09:07.816Z,3.40
2023-03-16T13:11:55.340Z,3.03
2023-03-16T13:14:45.322Z,3.03
2023-03-16T13:17:33.919Z,1.70
2023-03-16T13:20:31.794Z,2.27
2023-03-16T13:23:25.840Z,6.77
2023-03-16T13:26:16.608Z,2.27
2023-03-16T13:29:18.584Z,4.37
2023-03-16T13:32:19.565Z,1.77
2023-03-16T13:35:10.077Z,3.50
2023-03-16T13:38:05.759Z,3.73
2023-03-16T13:40:55.458Z,1.63
2023-03-16T13:43:44.514Z,2.93
2023-03-16T13:46:31.824Z,2.07
2023-03-16T13:49:20.001Z,1.33
2023-03-16T13:52:07.076Z,3.33
2023-03-16T13:54:55.060Z,2.10
2023-03-16T13:57:44.350Z,3.90
2023-03-16T14:00:34.702Z,5.07
2023-03-16T14:03:22.536Z,2.07
2023-03-16T14:06:23.013Z,4.57
2023-03-16T14:09:23.750Z,1.53
2023-03-16T14:12:15.870Z,2.70
2023-03-16T14:15:07.295Z,4.33
2023-03-16T14:17:54.624Z,2.63
2023-03-16T14:20:41.939Z,4.63
2023-03-16T14:23:35.838Z,2.80
2023-03-16T14:26:23.038Z,1.40
2023-03-16T14:29:19.544Z,2.00
2023-03-16T14:32:23.452Z,2.57
2023-03-16T14:35:16.549Z,1.30
2023-03-16T14:38:21.825Z,5.43
2023-03-16T14:41:23.005Z,1.80
2023-03-16T14:44:21.261Z,1.03
2023-03-16T14:47:08.517Z,2.50
2023-03-16T14:49:57.603Z,5.57
2023-03-16T14:52:45.876Z,1.53
2023-03-16T14:55:32.361Z,1.00
2023-03-16T14:58:20.522Z,1.80
2023-03-16T15:01:08.199Z,1.63
2023-03-16T15:03:54.706Z,1.30
2023-03-16T15:06:41.715Z,6.00
2023-03-16T15:09:38.332Z,1.37
2023-03-16T15:12:26.258Z,1.30
2023-03-16T15:15:16.765Z,1.80
2023-03-16T15:18:04.122Z,1.67
2023-03-16T15:20:53.779Z,2.80
2023-03-16T15:23:41.602Z,1.17
2023-03-16T15:26:30.736Z,2.30
2023-03-16T15:29:19.846Z,3.23
2023-03-16T15:32:14.567Z,1.67
2023-03-16T15:35:01.173Z,3.80
2023-03-16T15:37:48.657Z,2.00
2023-03-16T15:40:37.008Z,1.87
2023-03-16T15:43:27.297Z,1.60
2023-03-16T15:46:14.853Z,2.00
2023-03-16T15:49:02.951Z,3.83
2023-03-16T15:51:49.576Z,1.77
2023-03-16T15:54:37.814Z,3.53
2023-03-16T15:57:24.655Z,6.10
2023-03-16T16:00:29.940Z,1.23
2023-03-16T16:03:17.198Z,2.63
2023-03-16T16:06:10.212Z,2.10
2023-03-16T16:08:56.886Z,1.63
2023-03-16T16:11:43.925Z,4.67
2023-03-16T16:14:30.620Z,2.47
2023-03-16T16:17:35.913Z,7.30
2023-03-16T16:20:29.544Z,1.53
2023-03-16T16:23:18.171Z,3.90
2023-03-16T16:26:12.499Z,3.17
2023-03-16T16:28:59.693Z,2.70
2023-03-16T16:31:46.671Z,1.43
2023-03-16T16:34:33.387Z,1.60
2023-03-16T16:37:20.148Z,3.40
2023-03-16T16:40:09.337Z,5.97
2023-03-16T16:42:56.347Z,2.60
2023-03-16T16:45:43.195Z,1.37
2023-03-16T16:48:33.010Z,2.53
2023-03-16T16:51:23.344Z,1.97
2023-03-16T16:54:16.298Z,1.57
2023-03-16T16:57:05.152Z,5.53
2023-03-16T16:59:52.282Z,6.53
2023-03-16T17:02:46.267Z,9.83
2023-03-16T17:05:32.797Z,3.70
2023-03-16T17:08:19.997Z,3.27
2023-03-16T17:11:06.664Z,1.73
2023-03-16T17:13:55.710Z,1.80
2023-03-16T17:16:42.677Z,2.30
2023-03-16T17:19:29.553Z,1.60
2023-03-16T17:22:24.647Z,3.33
2023-03-16T17:25:11.560Z,1.20
2023-03-16T17:27:58.960Z,1.53
2023-03-16T17:30:49.193Z,3.17
2023-03-16T17:33:35.753Z,1.50
2023-03-16T17:36:22.943Z,3.63
2023-03-16T17:39:24.772Z,2.07
2023-03-16T17:42:18.565Z,1.50
2023-03-16T17:45:15.757Z,1.70
2023-03-16T17:48:05.308Z,4.07
2023-03-16T17:50:52.118Z,2.63
2023-03-16T17:53:39.885Z,1.63
2023-03-16T17:56:28.097Z,4.20
2023-03-16T17:59:17.594Z,5.13
2023-03-16T18:02:04.859Z,2.77
2023-03-16T18:04:53.245Z,3.30
2023-03-16T18:07:41.783Z,2.60
2023-03-16T18:10:31.521Z,2.03
2023-03-16T18:13:22.605Z,3.47
2023-03-16T18:16:10.285Z,5.27
2023-03-16T18:19:00.427Z,3.17
2023-03-16T18:21:51.299Z,3.97
2023-03-16T18:24:44.461Z,5.17
2023-03-16T18:27:35.694Z,4.97
2023-03-16T18:30:27.608Z,6.13
2023-03-16T18:33:28.682Z,3.90
2023-03-16T18:36:18.495Z,5.00
2023-03-16T18:39:08.182Z,4.03
2023-03-16T18:41:54.849Z,3.20
2023-03-16T18:44:41.429Z,4.87
2023-03-16T18:47:31.643Z,6.27
2023-03-16T18:50:22.860Z,6.57
2023-03-16T18:53:16.195Z,4.17
2023-03-16T18:56:04.450Z,3.33
2023-03-16T18:58:52.698Z,1.90
2023-03-16T19:01:42.223Z,2.50
2023-03-16T19:04:32.928Z,3.87
2023-03-16T19:07:26.691Z,2.63
2023-03-16T19:10:22.171Z,4.30
2023-03-16T19:13:19.226Z,2.90
2023-03-16T19:16:15.814Z,4.83
2023-03-16T19:19:02.568Z,7.07
2023-03-16T19:21:50.681Z,3.77
2023-03-16T19:24:45.028Z,2.17
2023-03-16T19:27:38.132Z,6.00
2023-03-16T19:30:29.285Z,4.03
2023-03-16T19:33:20.965Z,9.50
2023-03-16T19:36:15.678Z,6.97
2023-03-16T19:39:04.028Z,7.20
2023-03-16T19:42:26.054Z,5.63
2023-03-16T19:45:19.047Z,4.60
2023-03-16T19:48:14.193Z,4.90
2023-03-16T19:51:02.025Z,9.03
2023-03-16T19:53:49.817Z,10.67
2023-03-16T19:56:36.713Z,7.40
2023-03-16T19:59:27.026Z,4.67
2023-03-16T20:02:26.613Z,5.43
2023-03-16T20:05:19.751Z,2.93
2023-03-16T20:08:20.132Z,17.57
2023-03-16T20:11:11.074Z,31.80
2023-03-16T20:13:59.019Z,4.97
2023-03-16T20:16:47.336Z,12.60
2023-03-16T20:19:46.504Z,6.23
2023-03-16T20:22:41.508Z,6.50
2023-03-16T20:25:47.151Z,4.07
2023-03-16T20:28:42.452Z,6.77
2023-03-16T20:31:34.695Z,7.30
2023-03-16T20:34:26.664Z,2.93
2023-03-16T20:37:23.877Z,3.43
2023-03-16T20:40:12.935Z,3.93
2023-03-16T20:42:59.421Z,5.03
2023-03-16T20:45:46.235Z,3.70
2023-03-16T20:48:32.968Z,2.37
2023-03-16T20:51:19.606Z,4.20
2023-03-16T20:54:07.407Z,3.97
2023-03-16T20:56:55.879Z,2.27
2023-03-16T20:59:43.528Z,4.43
2023-03-16T21:02:34.116Z,2.10
2023-03-16T21:05:20.793Z,4.17
2023-03-16T21:08:08.292Z,3.73
2023-03-16T21:10:56.814Z,2.27
2023-03-16T21:13:44.594Z,2.83
2023-03-16T21:16:31.409Z,3.47
2023-03-16T21:19:21.138Z,3.67
2023-03-16T21:22:26.098Z,6.87
2023-03-16T21:25:20.728Z,3.20
2023-03-16T21:28:07.321Z,3.10
2023-03-16T21:30:57.583Z,4.70
2023-03-16T21:33:44.547Z,2.87
2023-03-16T21:36:31.231Z,4.57
2023-03-16T21:39:22.590Z,5.40
2023-03-16T21:42:09.427Z,4.60
2023-03-16T21:44:56.304Z,4.77
2023-03-16T21:47:45.376Z,3.23
2023-03-16T21:50:35.711Z,5.17
2023-03-16T21:53:27.453Z,5.47
2023-03-16T21:56:17.064Z,4.07
2023-03-16T21:59:04.100Z,4.20
2023-03-16T22:02:01.136Z,4.37
2023-03-16T22:04:51.142Z,3.97
2023-03-16T22:07:37.708Z,3.37
2023-03-16T22:10:26.081Z,2.33
2023-03-16T22:13:13.287Z,3.23
2023-03-16T22:15:59.916Z,4.00
2023-03-16T22:18:48.351Z,8.80
2023-03-16T22:21:38.207Z,9.23
2023-03-16T22:24:29.068Z,5.20
2023-03-16T22:27:18.939Z,3.97
2023-03-16T22:30:07.203Z,4.50
2023-03-16T22:32:58.083Z,7.87
2023-03-16T22:35:45.041Z,3.57
2023-03-16T22:38:35.138Z,4.97
2023-03-16T22:41:23.281Z,5.00
2023-03-16T22:44:19.076Z,9.90
2023-03-16T22:47:13.732Z,8.67
2023-03-16T22:50:01.289Z,7.83
2023-03-16T22:52:51.190Z,4.43
2023-03-16T22:55:41.371Z,3.90
2023-03-16T22:58:33.817Z,5.00
2023-03-16T23:01:23.222Z,9.23
2023-03-16T23:04:15.585Z,7.00
2023-03-16T23:07:02.431Z,4.63
2023-03-16T23:09:49.375Z,5.67
2023-03-16T23:12:38.701Z,6.73
2023-03-16T23:15:27.873Z,4.90
2023-03-16T23:18:19.769Z,5.17
2023-03-16T23:21:06.970Z,3.70
2023-03-16T23:24:03.620Z,4.77
2023-03-16T23:26:52.101Z,7.00
2023-03-16T23:29:41.193Z,6.70
2023-03-16T23:32:27.865Z,6.00
2023-03-16T23:35:18.228Z,9.23
2023-03-16T23:38:05.045Z,5.20
2023-03-16T23:40:51.857Z,9.40
2023-03-16T23:43:41.695Z,7.23
2023-03-16T23:46:30.783Z,3.67
2023-03-16T23:49:21.614Z,3.90
2023-03-16T23:52:08.368Z,8.63
2023-03-16T23:55:13.224Z,5.90
2023-03-16T23:58:02.906Z,3.27
